sensor_id;sensor_type;location;lat;lon;timestamp;temperature;humidity
37222;DHT22;23119;51.842;-2.230;2023-04-24T00:01:15;8.30;99.90
37222;DHT22;23119;51.842;-2.230;2023-04-24T00:03:42;8.30;99.90
37222;DHT22;23119;51.842;-2.230;2023-04-24T00:06:08;8.30;99.90
37222;DHT22;23119;51.842;-2.230;2023-04-24T00:08:36;8.30;99.90
37222;DHT22;23119;51.842;-2.230;2023-04-24T00:11:04;8.30;99.90
37222;DHT22;23119;51.842;-2.230;2023-04-24T00:13:30;8.30;99.90
37222;DHT22;23119;51.842;-2.230;2023-04-24T00:15:55;8.30;99.90
37222;DHT22;23119;51.842;-2.230;2023-04-24T00:18:23;8.30;99.90
37222;DHT22;23119;51.842;-2.230;2023-04-24T00:20:51;8.20;99.90
37222;DHT22;23119;51.842;-2.230;2023-04-24T00:23:17;8.30;99.90
37222;DHT22;23119;51.842;-2.230;2023-04-24T00:25:45;8.20;99.90
37222;DHT22;23119;51.842;-2.230;2023-04-24T00:28:10;8.30;99.90
37222;DHT22;23119;51.842;-2.230;2023-04-24T00:30:36;8.20;99.90
37222;DHT22;23119;51.842;-2.230;2023-04-24T00:33:07;8.20;99.90
37222;DHT22;23119;51.842;-2.230;2023-04-24T00:35:35;8.20;99.90
37222;DHT22;23119;51.842;-2.230;2023-04-24T00:38:08;8.20;99.90
37222;DHT22;23119;51.842;-2.230;2023-04-24T00:40:33;8.20;99.90
37222;DHT22;23119;51.842;-2.230;2023-04-24T00:42:59;8.20;99.90
37222;DHT22;23119;51.842;-2.230;2023-04-24T00:45:25;8.20;99.90
37222;DHT22;23119;51.842;-2.230;2023-04-24T00:47:56;8.20;99.90
37222;DHT22;23119;51.842;-2.230;2023-04-24T00:50:23;8.20;99.90
37222;DHT22;23119;51.842;-2.230;2023-04-24T00:52:49;8.20;99.90
37222;DHT22;23119;51.842;-2.230;2023-04-24T00:55:22;8.20;99.90
37222;DHT22;23119;51.842;-2.230;2023-04-24T00:57:54;8.20;99.90
37222;DHT22;23119;51.842;-2.230;2023-04-24T01:00:20;8.20;99.90
37222;DHT22;23119;51.842;-2.230;2023-04-24T01:02:48;8.10;99.90
37222;DHT22;23119;51.842;-2.230;2023-04-24T01:05:17;8.10;99.90
37222;DHT22;23119;51.842;-2.230;2023-04-24T01:07:47;8.10;99.90
37222;DHT22;23119;51.842;-2.230;2023-04-24T01:10:14;8.10;99.90
37222;DHT22;23119;51.842;-2.230;2023-04-24T01:12:42;8.10;99.90
37222;DHT22;23119;51.842;-2.230;2023-04-24T01:15:08;8.10;99.90
37222;DHT22;23119;51.842;-2.230;2023-04-24T01:17:36;8.10;99.90
37222;DHT22;23119;51.842;-2.230;2023-04-24T01:20:04;8.10;99.90
37222;DHT22;23119;51.842;-2.230;2023-04-24T01:22:33;8.10;99.90
37222;DHT22;23119;51.842;-2.230;2023-04-24T01:25:00;8.10;99.90
37222;DHT22;23119;51.842;-2.230;2023-04-24T01:27:31;8.10;99.90
37222;DHT22;23119;51.842;-2.230;2023-04-24T01:30:06;8.10;99.90
37222;DHT22;23119;51.842;-2.230;2023-04-24T01:32:31;8.00;99.90
37222;DHT22;23119;51.842;-2.230;2023-04-24T01:34:57;8.00;99.90
37222;DHT22;23119;51.842;-2.230;2023-04-24T01:37:23;8.00;99.90
37222;DHT22;23119;51.842;-2.230;2023-04-24T01:39:48;7.90;99.90
37222;DHT22;23119;51.842;-2.230;2023-04-24T01:42:27;7.90;99.90
37222;DHT22;23119;51.842;-2.230;2023-04-24T01:44:53;7.80;99.90
37222;DHT22;23119;51.842;-2.230;2023-04-24T01:47:21;7.80;99.90
37222;DHT22;23119;51.842;-2.230;2023-04-24T01:49:50;7.80;99.90
37222;DHT22;23119;51.842;-2.230;2023-04-24T01:52:18;7.70;99.90
37222;DHT22;23119;51.842;-2.230;2023-04-24T01:54:46;7.70;99.90
37222;DHT22;23119;51.842;-2.230;2023-04-24T01:57:18;7.70;99.90
37222;DHT22;23119;51.842;-2.230;2023-04-24T01:59:45;7.60;99.90
37222;DHT22;23119;51.842;-2.230;2023-04-24T02:02:11;7.60;99.90
37222;DHT22;23119;51.842;-2.230;2023-04-24T02:04:37;7.60;99.90
37222;DHT22;23119;51.842;-2.230;2023-04-24T02:07:05;7.60;99.90
37222;DHT22;23119;51.842;-2.230;2023-04-24T02:09:33;7.60;99.90
37222;DHT22;23119;51.842;-2.230;2023-04-24T02:12:02;7.50;99.90
37222;DHT22;23119;51.842;-2.230;2023-04-24T02:14:29;7.50;99.90
37222;DHT22;23119;51.842;-2.230;2023-04-24T02:17:00;7.50;99.90
37222;DHT22;23119;51.842;-2.230;2023-04-24T02:19:28;7.50;99.90
37222;DHT22;23119;51.842;-2.230;2023-04-24T02:21:59;7.50;99.90
37222;DHT22;23119;51.842;-2.230;2023-04-24T02:24:33;7.50;99.90
37222;DHT22;23119;51.842;-2.230;2023-04-24T02:27:04;7.50;99.90
37222;DHT22;23119;51.842;-2.230;2023-04-24T02:29:32;7.50;99.90
37222;DHT22;23119;51.842;-2.230;2023-04-24T02:31:58;7.50;99.90
37222;DHT22;23119;51.842;-2.230;2023-04-24T02:34:28;7.50;99.90
37222;DHT22;23119;51.842;-2.230;2023-04-24T02:36:59;7.50;99.90
37222;DHT22;23119;51.842;-2.230;2023-04-24T02:39:27;7.50;99.90
37222;DHT22;23119;51.842;-2.230;2023-04-24T02:41:55;7.40;99.90
37222;DHT22;23119;51.842;-2.230;2023-04-24T02:44:23;7.40;99.90
37222;DHT22;23119;51.842;-2.230;2023-04-24T02:46:49;7.40;99.90
37222;DHT22;23119;51.842;-2.230;2023-04-24T02:49:15;7.50;99.90
37222;DHT22;23119;51.842;-2.230;2023-04-24T02:51:40;7.50;99.90
37222;DHT22;23119;51.842;-2.230;2023-04-24T02:54:07;7.60;99.90
37222;DHT22;23119;51.842;-2.230;2023-04-24T02:56:36;7.60;99.90
37222;DHT22;23119;51.842;-2.230;2023-04-24T02:59:01;7.70;99.90
37222;DHT22;23119;51.842;-2.230;2023-04-24T03:01:27;7.60;99.90
37222;DHT22;23119;51.842;-2.230;2023-04-24T03:03:52;7.70;99.90
37222;DHT22;23119;51.842;-2.230;2023-04-24T03:06:21;7.70;99.90
37222;DHT22;23119;51.842;-2.230;2023-04-24T03:08:46;7.70;99.90
37222;DHT22;23119;51.842;-2.230;2023-04-24T03:11:14;7.70;99.90
37222;DHT22;23119;51.842;-2.230;2023-04-24T03:13:40;7.70;99.90
37222;DHT22;23119;51.842;-2.230;2023-04-24T03:16:05;7.70;99.90
37222;DHT22;23119;51.842;-2.230;2023-04-24T03:18:31;7.80;99.90
37222;DHT22;23119;51.842;-2.230;2023-04-24T03:20:56;7.70;99.90
37222;DHT22;23119;51.842;-2.230;2023-04-24T03:23:22;7.80;99.90
37222;DHT22;23119;51.842;-2.230;2023-04-24T03:25:50;7.80;99.90
37222;DHT22;23119;51.842;-2.230;2023-04-24T03:28:17;7.90;99.90
37222;DHT22;23119;51.842;-2.230;2023-04-24T03:30:46;7.90;99.90
37222;DHT22;23119;51.842;-2.230;2023-04-24T03:33:11;7.90;99.90
37222;DHT22;23119;51.842;-2.230;2023-04-24T03:35:40;7.90;99.90
37222;DHT22;23119;51.842;-2.230;2023-04-24T03:38:06;8.00;99.90
37222;DHT22;23119;51.842;-2.230;2023-04-24T03:40:32;7.90;99.90
37222;DHT22;23119;51.842;-2.230;2023-04-24T03:42:58;8.00;99.90
37222;DHT22;23119;51.842;-2.230;2023-04-24T03:45:24;8.00;99.90
37222;DHT22;23119;51.842;-2.230;2023-04-24T03:47:50;8.00;99.90
37222;DHT22;23119;51.842;-2.230;2023-04-24T03:50:15;8.00;99.90
37222;DHT22;23119;51.842;-2.230;2023-04-24T03:52:41;8.00;99.90
37222;DHT22;23119;51.842;-2.230;2023-04-24T03:55:07;8.00;99.90
37222;DHT22;23119;51.842;-2.230;2023-04-24T03:57:32;8.00;99.90
37222;DHT22;23119;51.842;-2.230;2023-04-24T03:59:58;8.10;99.90
37222;DHT22;23119;51.842;-2.230;2023-04-24T04:02:24;8.10;99.90
37222;DHT22;23119;51.842;-2.230;2023-04-24T04:04:52;8.10;99.90
37222;DHT22;23119;51.842;-2.230;2023-04-24T04:07:17;8.20;99.90
37222;DHT22;23119;51.842;-2.230;2023-04-24T04:09:43;8.20;99.90
37222;DHT22;23119;51.842;-2.230;2023-04-24T04:12:08;8.10;99.90
37222;DHT22;23119;51.842;-2.230;2023-04-24T04:14:34;8.10;99.90
37222;DHT22;23119;51.842;-2.230;2023-04-24T04:17:00;8.10;99.90
37222;DHT22;23119;51.842;-2.230;2023-04-24T04:19:25;9.50;99.90
37222;DHT22;23119;51.842;-2.230;2023-04-24T04:21:54;8.10;99.90
37222;DHT22;23119;51.842;-2.230;2023-04-24T04:24:21;8.00;99.90
37222;DHT22;23119;51.842;-2.230;2023-04-24T04:26:47;8.00;99.90
37222;DHT22;23119;51.842;-2.230;2023-04-24T04:29:16;7.90;99.90
37222;DHT22;23119;51.842;-2.230;2023-04-24T04:31:44;7.90;99.90
37222;DHT22;23119;51.842;-2.230;2023-04-24T04:34:12;7.80;99.90
37222;DHT22;23119;51.842;-2.230;2023-04-24T04:36:39;7.70;99.90
37222;DHT22;23119;51.842;-2.230;2023-04-24T04:39:08;7.70;99.90
37222;DHT22;23119;51.842;-2.230;2023-04-24T04:41:36;7.60;99.90
37222;DHT22;23119;51.842;-2.230;2023-04-24T04:44:05;7.50;99.90
37222;DHT22;23119;51.842;-2.230;2023-04-24T04:46:31;7.50;99.90
37222;DHT22;23119;51.842;-2.230;2023-04-24T04:49:02;7.40;99.90
37222;DHT22;23119;51.842;-2.230;2023-04-24T04:51:28;7.40;99.90
37222;DHT22;23119;51.842;-2.230;2023-04-24T04:54:00;7.40;99.90
37222;DHT22;23119;51.842;-2.230;2023-04-24T04:56:25;7.40;99.90
37222;DHT22;23119;51.842;-2.230;2023-04-24T04:58:51;7.50;99.90
37222;DHT22;23119;51.842;-2.230;2023-04-24T05:01:16;7.50;99.90
37222;DHT22;23119;51.842;-2.230;2023-04-24T05:03:42;7.60;99.90
37222;DHT22;23119;51.842;-2.230;2023-04-24T05:06:08;7.60;99.90
37222;DHT22;23119;51.842;-2.230;2023-04-24T05:08:36;7.70;99.90
37222;DHT22;23119;51.842;-2.230;2023-04-24T05:11:05;7.70;99.90
37222;DHT22;23119;51.842;-2.230;2023-04-24T05:13:33;7.70;99.90
37222;DHT22;23119;51.842;-2.230;2023-04-24T05:15:59;7.80;99.90
37222;DHT22;23119;51.842;-2.230;2023-04-24T05:18:27;7.80;99.90
37222;DHT22;23119;51.842;-2.230;2023-04-24T05:20:55;7.90;99.90
37222;DHT22;23119;51.842;-2.230;2023-04-24T05:23:21;7.90;99.90
37222;DHT22;23119;51.842;-2.230;2023-04-24T05:25:46;7.90;99.90
37222;DHT22;23119;51.842;-2.230;2023-04-24T05:28:12;7.90;99.90
37222;DHT22;23119;51.842;-2.230;2023-04-24T05:30:37;8.00;99.90
37222;DHT22;23119;51.842;-2.230;2023-04-24T05:33:03;8.00;99.90
37222;DHT22;23119;51.842;-2.230;2023-04-24T05:35:29;8.00;99.90
37222;DHT22;23119;51.842;-2.230;2023-04-24T05:37:56;8.00;99.90
37222;DHT22;23119;51.842;-2.230;2023-04-24T05:40:22;8.00;99.90
37222;DHT22;23119;51.842;-2.230;2023-04-24T05:42:51;8.00;99.90
37222;DHT22;23119;51.842;-2.230;2023-04-24T05:45:16;8.10;99.90
37222;DHT22;23119;51.842;-2.230;2023-04-24T05:47:47;8.10;99.90
37222;DHT22;23119;51.842;-2.230;2023-04-24T05:50:13;8.10;99.90
37222;DHT22;23119;51.842;-2.230;2023-04-24T05:52:38;8.10;99.90
37222;DHT22;23119;51.842;-2.230;2023-04-24T05:55:04;8.10;99.90
37222;DHT22;23119;51.842;-2.230;2023-04-24T05:57:30;8.10;99.90
37222;DHT22;23119;51.842;-2.230;2023-04-24T06:00:01;8.10;99.90
37222;DHT22;23119;51.842;-2.230;2023-04-24T06:02:27;8.10;99.90
37222;DHT22;23119;51.842;-2.230;2023-04-24T06:04:58;8.10;99.90
37222;DHT22;23119;51.842;-2.230;2023-04-24T06:07:26;8.20;99.90
37222;DHT22;23119;51.842;-2.230;2023-04-24T06:09:52;8.20;99.90
37222;DHT22;23119;51.842;-2.230;2023-04-24T06:12:23;8.20;99.90
37222;DHT22;23119;51.842;-2.230;2023-04-24T06:14:49;8.30;99.90
37222;DHT22;23119;51.842;-2.230;2023-04-24T06:17:20;8.30;99.90
37222;DHT22;23119;51.842;-2.230;2023-04-24T06:19:46;8.40;99.90
37222;DHT22;23119;51.842;-2.230;2023-04-24T06:22:12;8.40;99.90
37222;DHT22;23119;51.842;-2.230;2023-04-24T06:24:45;8.40;99.90
37222;DHT22;23119;51.842;-2.230;2023-04-24T06:27:15;8.50;99.90
37222;DHT22;23119;51.842;-2.230;2023-04-24T06:29:46;8.60;99.90
37222;DHT22;23119;51.842;-2.230;2023-04-24T06:32:22;8.70;99.90
37222;DHT22;23119;51.842;-2.230;2023-04-24T06:34:52;8.80;99.90
37222;DHT22;23119;51.842;-2.230;2023-04-24T06:37:21;9.10;99.90
37222;DHT22;23119;51.842;-2.230;2023-04-24T06:39:49;9.30;99.90
37222;DHT22;23119;51.842;-2.230;2023-04-24T06:42:17;9.40;99.90
37222;DHT22;23119;51.842;-2.230;2023-04-24T06:44:47;9.50;99.90
37222;DHT22;23119;51.842;-2.230;2023-04-24T06:47:15;9.70;99.90
37222;DHT22;23119;51.842;-2.230;2023-04-24T06:49:44;10.00;99.90
37222;DHT22;23119;51.842;-2.230;2023-04-24T06:52:09;10.70;99.90
37222;DHT22;23119;51.842;-2.230;2023-04-24T06:54:38;11.40;99.90
37222;DHT22;23119;51.842;-2.230;2023-04-24T06:57:06;11.80;99.90
37222;DHT22;23119;51.842;-2.230;2023-04-24T06:59:31;12.10;99.90
37222;DHT22;23119;51.842;-2.230;2023-04-24T07:01:57;12.20;99.90
37222;DHT22;23119;51.842;-2.230;2023-04-24T07:04:25;12.20;99.90
37222;DHT22;23119;51.842;-2.230;2023-04-24T07:06:51;12.20;99.90
37222;DHT22;23119;51.842;-2.230;2023-04-24T07:09:16;12.90;99.90
37222;DHT22;23119;51.842;-2.230;2023-04-24T07:11:45;13.40;99.90
37222;DHT22;23119;51.842;-2.230;2023-04-24T07:14:11;13.40;99.90
37222;DHT22;23119;51.842;-2.230;2023-04-24T07:16:40;13.60;99.90
37222;DHT22;23119;51.842;-2.230;2023-04-24T07:19:06;13.70;99.90
37222;DHT22;23119;51.842;-2.230;2023-04-24T07:21:31;13.70;99.90
37222;DHT22;23119;51.842;-2.230;2023-04-24T07:23:57;13.70;99.90
37222;DHT22;23119;51.842;-2.230;2023-04-24T07:26:23;13.60;99.90
37222;DHT22;23119;51.842;-2.230;2023-04-24T07:28:49;13.60;99.90
37222;DHT22;23119;51.842;-2.230;2023-04-24T07:31:14;13.60;99.90
37222;DHT22;23119;51.842;-2.230;2023-04-24T07:33:40;13.30;99.90
37222;DHT22;23119;51.842;-2.230;2023-04-24T07:36:06;13.20;99.90
37222;DHT22;23119;51.842;-2.230;2023-04-24T07:38:31;13.00;99.90
37222;DHT22;23119;51.842;-2.230;2023-04-24T07:40:57;12.90;99.90
37222;DHT22;23119;51.842;-2.230;2023-04-24T07:43:22;12.70;99.90
37222;DHT22;23119;51.842;-2.230;2023-04-24T07:45:49;12.50;99.90
37222;DHT22;23119;51.842;-2.230;2023-04-24T07:48:15;12.10;99.90
37222;DHT22;23119;51.842;-2.230;2023-04-24T07:50:42;11.80;99.90
37222;DHT22;23119;51.842;-2.230;2023-04-24T07:53:07;11.50;99.90
37222;DHT22;23119;51.842;-2.230;2023-04-24T07:55:33;11.10;99.90
37222;DHT22;23119;51.842;-2.230;2023-04-24T07:57:58;10.70;99.90
37222;DHT22;23119;51.842;-2.230;2023-04-24T08:00:24;10.70;99.90
37222;DHT22;23119;51.842;-2.230;2023-04-24T08:02:50;10.60;99.90
37222;DHT22;23119;51.842;-2.230;2023-04-24T08:05:15;10.50;99.90
37222;DHT22;23119;51.842;-2.230;2023-04-24T08:07:45;10.50;99.90
37222;DHT22;23119;51.842;-2.230;2023-04-24T08:10:11;10.50;99.90
37222;DHT22;23119;51.842;-2.230;2023-04-24T08:12:37;10.60;99.90
37222;DHT22;23119;51.842;-2.230;2023-04-24T08:15:03;10.50;99.90
37222;DHT22;23119;51.842;-2.230;2023-04-24T08:17:29;10.50;99.90
37222;DHT22;23119;51.842;-2.230;2023-04-24T08:19:54;10.40;99.90
37222;DHT22;23119;51.842;-2.230;2023-04-24T08:22:29;10.30;99.90
37222;DHT22;23119;51.842;-2.230;2023-04-24T08:24:55;10.20;99.90
37222;DHT22;23119;51.842;-2.230;2023-04-24T08:27:22;10.00;99.90
37222;DHT22;23119;51.842;-2.230;2023-04-24T08:29:48;9.70;99.90
37222;DHT22;23119;51.842;-2.230;2023-04-24T08:32:13;9.60;99.90
37222;DHT22;23119;51.842;-2.230;2023-04-24T08:34:39;9.50;99.90
37222;DHT22;23119;51.842;-2.230;2023-04-24T08:37:04;10.90;99.90
37222;DHT22;23119;51.842;-2.230;2023-04-24T08:39:30;9.50;99.90
37222;DHT22;23119;51.842;-2.230;2023-04-24T08:41:58;9.50;99.90
37222;DHT22;23119;51.842;-2.230;2023-04-24T08:44:33;9.50;99.90
37222;DHT22;23119;51.842;-2.230;2023-04-24T08:47:01;9.40;99.90
37222;DHT22;23119;51.842;-2.230;2023-04-24T08:49:28;9.40;99.90
37222;DHT22;23119;51.842;-2.230;2023-04-24T08:51:55;9.60;99.90
37222;DHT22;23119;51.842;-2.230;2023-04-24T08:54:22;9.60;99.90
37222;DHT22;23119;51.842;-2.230;2023-04-24T08:56:47;9.60;99.90
37222;DHT22;23119;51.842;-2.230;2023-04-24T08:59:14;9.70;99.90
37222;DHT22;23119;51.842;-2.230;2023-04-24T09:01:40;9.70;99.90
37222;DHT22;23119;51.842;-2.230;2023-04-24T09:04:07;9.80;99.90
37222;DHT22;23119;51.842;-2.230;2023-04-24T09:06:32;9.90;99.90
37222;DHT22;23119;51.842;-2.230;2023-04-24T09:09:01;10.10;99.90
37222;DHT22;23119;51.842;-2.230;2023-04-24T09:11:27;10.20;99.90
37222;DHT22;23119;51.842;-2.230;2023-04-24T09:13:53;10.20;99.90
37222;DHT22;23119;51.842;-2.230;2023-04-24T09:16:19;10.20;99.90
37222;DHT22;23119;51.842;-2.230;2023-04-24T09:18:44;10.30;99.90
37222;DHT22;23119;51.842;-2.230;2023-04-24T09:21:10;10.40;99.90
37222;DHT22;23119;51.842;-2.230;2023-04-24T09:23:36;10.50;99.90
37222;DHT22;23119;51.842;-2.230;2023-04-24T09:26:02;10.60;99.90
37222;DHT22;23119;51.842;-2.230;2023-04-24T09:28:37;10.60;99.90
37222;DHT22;23119;51.842;-2.230;2023-04-24T09:31:12;10.60;99.90
37222;DHT22;23119;51.842;-2.230;2023-04-24T09:33:40;10.70;99.90
37222;DHT22;23119;51.842;-2.230;2023-04-24T09:36:06;10.70;99.90
37222;DHT22;23119;51.842;-2.230;2023-04-24T09:38:32;10.70;99.90
37222;DHT22;23119;51.842;-2.230;2023-04-24T09:41:05;10.70;99.90
37222;DHT22;23119;51.842;-2.230;2023-04-24T09:43:34;10.60;99.90
37222;DHT22;23119;51.842;-2.230;2023-04-24T09:46:04;10.60;99.90
37222;DHT22;23119;51.842;-2.230;2023-04-24T09:48:31;10.60;99.90
37222;DHT22;23119;51.842;-2.230;2023-04-24T09:50:57;10.60;99.90
37222;DHT22;23119;51.842;-2.230;2023-04-24T09:53:26;10.60;99.90
37222;DHT22;23119;51.842;-2.230;2023-04-24T09:55:51;10.50;99.90
37222;DHT22;23119;51.842;-2.230;2023-04-24T09:58:18;10.30;99.90
37222;DHT22;23119;51.842;-2.230;2023-04-24T10:00:49;10.20;99.90
37222;DHT22;23119;51.842;-2.230;2023-04-24T10:03:15;10.20;99.90
37222;DHT22;23119;51.842;-2.230;2023-04-24T10:05:44;10.10;99.90
37222;DHT22;23119;51.842;-2.230;2023-04-24T10:08:11;10.00;99.90
37222;DHT22;23119;51.842;-2.230;2023-04-24T10:10:41;9.90;99.90
37222;DHT22;23119;51.842;-2.230;2023-04-24T10:13:07;9.80;99.90
37222;DHT22;23119;51.842;-2.230;2023-04-24T10:15:35;9.80;99.90
37222;DHT22;23119;51.842;-2.230;2023-04-24T10:18:01;9.80;99.90
37222;DHT22;23119;51.842;-2.230;2023-04-24T10:20:28;9.60;99.90
37222;DHT22;23119;51.842;-2.230;2023-04-24T10:22:57;9.40;99.90
37222;DHT22;23119;51.842;-2.230;2023-04-24T10:25:24;9.30;99.90
37222;DHT22;23119;51.842;-2.230;2023-04-24T10:27:50;9.20;99.90
37222;DHT22;23119;51.842;-2.230;2023-04-24T10:30:17;9.20;99.90
37222;DHT22;23119;51.842;-2.230;2023-04-24T10:32:43;9.10;99.90
37222;DHT22;23119;51.842;-2.230;2023-04-24T10:35:09;9.20;99.90
37222;DHT22;23119;51.842;-2.230;2023-04-24T10:37:38;9.10;99.90
37222;DHT22;23119;51.842;-2.230;2023-04-24T10:40:05;9.10;99.90
37222;DHT22;23119;51.842;-2.230;2023-04-24T10:42:31;9.10;99.90
37222;DHT22;23119;51.842;-2.230;2023-04-24T10:44:56;9.10;99.90
37222;DHT22;23119;51.842;-2.230;2023-04-24T10:47:23;9.10;99.90
37222;DHT22;23119;51.842;-2.230;2023-04-24T10:49:50;9.10;99.90
37222;DHT22;23119;51.842;-2.230;2023-04-24T10:52:16;9.20;99.90
37222;DHT22;23119;51.842;-2.230;2023-04-24T10:54:45;9.20;99.90
37222;DHT22;23119;51.842;-2.230;2023-04-24T10:59:43;9.30;99.90
37222;DHT22;23119;51.842;-2.230;2023-04-24T11:02:09;9.40;99.90
37222;DHT22;23119;51.842;-2.230;2023-04-24T11:04:35;9.40;99.90
37222;DHT22;23119;51.842;-2.230;2023-04-24T11:07:04;9.40;99.90
37222;DHT22;23119;51.842;-2.230;2023-04-24T11:09:30;9.40;99.90
37222;DHT22;23119;51.842;-2.230;2023-04-24T11:12:03;9.40;99.90
37222;DHT22;23119;51.842;-2.230;2023-04-24T11:14:29;9.30;99.90
37222;DHT22;23119;51.842;-2.230;2023-04-24T11:16:54;9.30;99.90
37222;DHT22;23119;51.842;-2.230;2023-04-24T11:19:21;9.20;99.90
37222;DHT22;23119;51.842;-2.230;2023-04-24T11:21:54;9.20;99.90
37222;DHT22;23119;51.842;-2.230;2023-04-24T11:26:51;9.20;99.90
37222;DHT22;23119;51.842;-2.230;2023-04-24T11:29:16;9.20;99.90
37222;DHT22;23119;51.842;-2.230;2023-04-24T11:31:44;9.30;99.90
37222;DHT22;23119;51.842;-2.230;2023-04-24T11:34:17;9.20;99.90
37222;DHT22;23119;51.842;-2.230;2023-04-24T11:36:46;9.20;99.90
37222;DHT22;23119;51.842;-2.230;2023-04-24T11:39:13;9.10;99.90
37222;DHT22;23119;51.842;-2.230;2023-04-24T11:41:38;9.20;99.90
37222;DHT22;23119;51.842;-2.230;2023-04-24T11:44:05;9.20;99.90
37222;DHT22;23119;51.842;-2.230;2023-04-24T11:46:31;9.20;99.90
37222;DHT22;23119;51.842;-2.230;2023-04-24T11:48:57;9.30;99.90
37222;DHT22;23119;51.842;-2.230;2023-04-24T11:51:23;9.40;99.90
37222;DHT22;23119;51.842;-2.230;2023-04-24T11:53:50;9.40;99.90
37222;DHT22;23119;51.842;-2.230;2023-04-24T11:56:20;9.50;99.90
37222;DHT22;23119;51.842;-2.230;2023-04-24T11:58:47;9.50;99.90
37222;DHT22;23119;51.842;-2.230;2023-04-24T12:01:13;9.50;99.90
37222;DHT22;23119;51.842;-2.230;2023-04-24T12:03:39;9.50;99.90
37222;DHT22;23119;51.842;-2.230;2023-04-24T12:06:11;9.50;99.90
37222;DHT22;23119;51.842;-2.230;2023-04-24T12:08:37;9.60;99.90
37222;DHT22;23119;51.842;-2.230;2023-04-24T12:11:03;9.60;99.90
37222;DHT22;23119;51.842;-2.230;2023-04-24T12:13:29;9.60;99.90
37222;DHT22;23119;51.842;-2.230;2023-04-24T12:15:58;9.70;99.90
37222;DHT22;23119;51.842;-2.230;2023-04-24T12:18:24;9.70;99.90
37222;DHT22;23119;51.842;-2.230;2023-04-24T12:20:49;9.80;99.90
37222;DHT22;23119;51.842;-2.230;2023-04-24T12:23:15;9.80;99.90
37222;DHT22;23119;51.842;-2.230;2023-04-24T12:25:41;9.80;99.90
37222;DHT22;23119;51.842;-2.230;2023-04-24T12:28:10;9.80;99.90
37222;DHT22;23119;51.842;-2.230;2023-04-24T12:30:43;9.80;99.90
37222;DHT22;23119;51.842;-2.230;2023-04-24T12:33:17;9.90;99.90
37222;DHT22;23119;51.842;-2.230;2023-04-24T12:35:48;9.90;99.90
37222;DHT22;23119;51.842;-2.230;2023-04-24T12:38:14;9.90;99.90
37222;DHT22;23119;51.842;-2.230;2023-04-24T12:40:41;9.90;99.90
37222;DHT22;23119;51.842;-2.230;2023-04-24T12:43:16;9.90;99.90
37222;DHT22;23119;51.842;-2.230;2023-04-24T12:45:46;9.90;99.90
37222;DHT22;23119;51.842;-2.230;2023-04-24T12:48:12;10.00;99.90
37222;DHT22;23119;51.842;-2.230;2023-04-24T12:50:39;10.10;99.90
37222;DHT22;23119;51.842;-2.230;2023-04-24T12:53:05;10.20;99.90
37222;DHT22;23119;51.842;-2.230;2023-04-24T12:55:33;10.30;99.90
37222;DHT22;23119;51.842;-2.230;2023-04-24T12:57:59;10.30;99.90
37222;DHT22;23119;51.842;-2.230;2023-04-24T13:00:25;10.40;99.90
37222;DHT22;23119;51.842;-2.230;2023-04-24T13:02:50;10.50;99.90
37222;DHT22;23119;51.842;-2.230;2023-04-24T13:05:16;10.60;99.90
37222;DHT22;23119;51.842;-2.230;2023-04-24T13:07:42;10.60;99.90
37222;DHT22;23119;51.842;-2.230;2023-04-24T13:10:11;10.70;99.90
37222;DHT22;23119;51.842;-2.230;2023-04-24T13:12:36;10.60;99.90
37222;DHT22;23119;51.842;-2.230;2023-04-24T13:15:02;10.60;99.90
37222;DHT22;23119;51.842;-2.230;2023-04-24T13:17:28;10.60;99.90
37222;DHT22;23119;51.842;-2.230;2023-04-24T13:19:56;10.70;99.90
37222;DHT22;23119;51.842;-2.230;2023-04-24T13:22:24;10.70;99.90
37222;DHT22;23119;51.842;-2.230;2023-04-24T13:24:50;10.70;99.90
37222;DHT22;23119;51.842;-2.230;2023-04-24T13:27:16;10.80;99.90
37222;DHT22;23119;51.842;-2.230;2023-04-24T13:29:42;10.80;99.90
37222;DHT22;23119;51.842;-2.230;2023-04-24T13:32:08;10.90;99.90
37222;DHT22;23119;51.842;-2.230;2023-04-24T13:34:33;10.90;99.90
37222;DHT22;23119;51.842;-2.230;2023-04-24T13:37:00;11.00;99.90
37222;DHT22;23119;51.842;-2.230;2023-04-24T13:39:26;11.10;99.90
37222;DHT22;23119;51.842;-2.230;2023-04-24T13:41:52;11.40;99.90
37222;DHT22;23119;51.842;-2.230;2023-04-24T13:44:18;11.50;99.90
37222;DHT22;23119;51.842;-2.230;2023-04-24T13:46:45;11.60;99.90
37222;DHT22;23119;51.842;-2.230;2023-04-24T13:49:14;11.60;99.90
37222;DHT22;23119;51.842;-2.230;2023-04-24T13:51:41;11.70;99.90
37222;DHT22;23119;51.842;-2.230;2023-04-24T13:54:06;11.70;99.90
37222;DHT22;23119;51.842;-2.230;2023-04-24T13:56:33;11.50;99.90
37222;DHT22;23119;51.842;-2.230;2023-04-24T13:59:04;11.30;99.90
37222;DHT22;23119;51.842;-2.230;2023-04-24T14:01:30;11.30;99.90
37222;DHT22;23119;51.842;-2.230;2023-04-24T14:03:56;11.30;99.90
37222;DHT22;23119;51.842;-2.230;2023-04-24T14:06:22;11.00;99.90
37222;DHT22;23119;51.842;-2.230;2023-04-24T14:08:48;11.00;99.90
37222;DHT22;23119;51.842;-2.230;2023-04-24T14:11:14;11.00;99.90
37222;DHT22;23119;51.842;-2.230;2023-04-24T14:13:40;10.90;99.90
37222;DHT22;23119;51.842;-2.230;2023-04-24T14:16:06;10.80;99.90
37222;DHT22;23119;51.842;-2.230;2023-04-24T14:18:32;10.70;99.90
37222;DHT22;23119;51.842;-2.230;2023-04-24T14:21:00;10.60;99.90
37222;DHT22;23119;51.842;-2.230;2023-04-24T14:23:27;10.50;99.90
37222;DHT22;23119;51.842;-2.230;2023-04-24T14:25:52;10.50;99.90
37222;DHT22;23119;51.842;-2.230;2023-04-24T14:28:21;10.30;99.90
37222;DHT22;23119;51.842;-2.230;2023-04-24T14:30:49;10.30;99.90
37222;DHT22;23119;51.842;-2.230;2023-04-24T14:33:15;10.30;99.90
37222;DHT22;23119;51.842;-2.230;2023-04-24T14:35:48;10.30;99.90
37222;DHT22;23119;51.842;-2.230;2023-04-24T14:38:16;10.10;99.90
37222;DHT22;23119;51.842;-2.230;2023-04-24T14:40:42;10.00;99.90
37222;DHT22;23119;51.842;-2.230;2023-04-24T14:43:07;9.90;99.90
37222;DHT22;23119;51.842;-2.230;2023-04-24T14:45:33;9.80;99.90
37222;DHT22;23119;51.842;-2.230;2023-04-24T14:48:01;9.70;99.90
37222;DHT22;23119;51.842;-2.230;2023-04-24T14:50:27;9.70;99.90
37222;DHT22;23119;51.842;-2.230;2023-04-24T14:52:56;9.50;99.90
37222;DHT22;23119;51.842;-2.230;2023-04-24T14:55:23;9.40;99.90
37222;DHT22;23119;51.842;-2.230;2023-04-24T14:57:48;9.40;99.90
37222;DHT22;23119;51.842;-2.230;2023-04-24T15:00:14;9.40;99.90
37222;DHT22;23119;51.842;-2.230;2023-04-24T15:02:42;9.40;99.90
37222;DHT22;23119;51.842;-2.230;2023-04-24T15:05:09;9.40;99.90
37222;DHT22;23119;51.842;-2.230;2023-04-24T15:07:35;9.50;99.90
37222;DHT22;23119;51.842;-2.230;2023-04-24T15:10:01;9.50;99.90
37222;DHT22;23119;51.842;-2.230;2023-04-24T15:12:27;9.50;99.90
37222;DHT22;23119;51.842;-2.230;2023-04-24T15:14:54;9.50;99.90
37222;DHT22;23119;51.842;-2.230;2023-04-24T15:17:19;9.60;99.90
37222;DHT22;23119;51.842;-2.230;2023-04-24T15:19:45;9.60;99.90
37222;DHT22;23119;51.842;-2.230;2023-04-24T15:22:10;9.60;99.90
37222;DHT22;23119;51.842;-2.230;2023-04-24T15:24:36;9.60;99.90
37222;DHT22;23119;51.842;-2.230;2023-04-24T15:27:02;9.60;99.90
37222;DHT22;23119;51.842;-2.230;2023-04-24T15:29:28;9.50;99.90
37222;DHT22;23119;51.842;-2.230;2023-04-24T15:31:54;9.60;99.90